Time;durP1;ratioP1;P1;durP2;ratioP2;P2;SDS_P1;SDS_P2;PMS_P1;PMS_P2;Temp;Humidity;BMP_temperature;BMP_pressure;BME280_temperature;BME280_humidity;BME280_pressure;Samples;Min_cycle;Max_cycle;Signal;HPM_P1;HPM_P2
2023/01/11 00:01:24;;;;;;;13.30;11.65;;;;;;;;;;5042296;28;20037;-73
2023/01/11 00:03:50;;;;;;;14.55;11.52;;;;;;;;;;5044573;28;20021;-74
2023/01/11 00:06:16;;;;;;;14.15;11.77;;;;;;;;;;5039862;28;20087;-73
2023/01/11 00:08:42;;;;;;;12.95;11.50;;;;;;;;;;5038702;28;21887;-73
2023/01/11 00:11:13;;;;;;;14.98;11.60;;;;;;;;;;5040689;28;20051;-75
2023/01/11 00:13:39;;;;;;;12.70;11.43;;;;;;;;;;5044294;28;20116;-74
2023/01/11 00:16:06;;;;;;;11.52;10.32;;;;;;;;;;5040760;28;20449;-75
2023/01/11 00:18:32;;;;;;;11.38;10.27;;;;;;;;;;5039919;28;20032;-73
2023/01/11 00:20:59;;;;;;;15.32;11.05;;;;;;;;;;5042833;28;20029;-74
2023/01/11 00:23:25;;;;;;;11.27;10.00;;;;;;;;;;5041276;28;20056;-74
2023/01/11 00:25:51;;;;;;;11.75;10.52;;;;;;;;;;5042251;28;20029;-74
2023/01/11 00:28:17;;;;;;;11.63;9.98;;;;;;;;;;5041226;28;20033;-74
2023/01/11 00:30:43;;;;;;;13.75;9.63;;;;;;;;;;5039901;28;20536;-73
2023/01/11 00:33:10;;;;;;;11.15;10.02;;;;;;;;;;5059576;28;20049;-75
2023/01/11 00:35:37;;;;;;;10.30;9.15;;;;;;;;;;5058662;28;20472;-74
2023/01/11 00:38:02;;;;;;;11.23;10.02;;;;;;;;;;5063958;28;20025;-74
2023/01/11 00:40:29;;;;;;;11.25;9.88;;;;;;;;;;5060763;28;20385;-74
2023/01/11 00:47:55;;;;;;;10.52;8.85;;;;;;;;;;5063006;28;20089;-73
2023/01/11 00:48:29;;;;;;;11.23;10.13;;;;;;;;;;5058298;28;20068;-73
2023/01/11 00:50:56;;;;;;;10.43;9.43;;;;;;;;;;5062532;28;20028;-73
2023/01/11 00:53:22;;;;;;;11.07;9.02;;;;;;;;;;5059614;28;20045;-73
2023/01/11 00:55:48;;;;;;;11.18;9.50;;;;;;;;;;5064708;28;20032;-74
2023/01/11 00:58:15;;;;;;;9.48;8.18;;;;;;;;;;5062360;28;20384;-75
2023/01/11 01:00:41;;;;;;;10.82;8.10;;;;;;;;;;5061409;28;20426;-74
2023/01/11 01:03:08;;;;;;;9.40;7.82;;;;;;;;;;5056102;28;20083;-73
2023/01/11 01:05:36;;;;;;;13.27;8.82;;;;;;;;;;5062576;28;20059;-74
2023/01/11 01:08:02;;;;;;;8.18;7.43;;;;;;;;;;5047397;28;20480;-73
2023/01/11 01:10:28;;;;;;;9.85;8.85;;;;;;;;;;5062757;28;20045;-73
2023/01/11 01:15:39;;;;;;;10.18;9.13;;;;;;;;;;5048728;28;20040;-74
2023/01/11 01:18:05;;;;;;;11.98;8.68;;;;;;;;;;5068456;28;20028;-74
2023/01/11 01:20:31;;;;;;;10.30;7.78;;;;;;;;;;5065704;28;20123;-73
2023/01/11 01:22:57;;;;;;;9.98;8.98;;;;;;;;;;5066749;28;20060;-73
2023/01/11 01:25:23;;;;;;;9.23;8.15;;;;;;;;;;5066375;28;20494;-74
2023/01/11 01:27:49;;;;;;;9.85;8.52;;;;;;;;;;5068127;28;20040;-73
2023/01/11 01:30:15;;;;;;;8.55;7.65;;;;;;;;;;5063655;28;20075;-74
2023/01/11 01:32:41;;;;;;;9.00;7.93;;;;;;;;;;5064917;28;20048;-73
2023/01/11 01:35:07;;;;;;;8.05;7.25;;;;;;;;;;5069128;28;20029;-72
2023/01/11 01:37:33;;;;;;;8.38;7.53;;;;;;;;;;5067795;28;20711;-74
2023/01/11 01:39:59;;;;;;;10.57;6.97;;;;;;;;;;5045285;28;20045;-73
2023/01/11 01:42:25;;;;;;;9.98;6.97;;;;;;;;;;5041393;28;20494;-74
2023/01/11 01:44:51;;;;;;;7.28;6.57;;;;;;;;;;5045395;28;20037;-74
2023/01/11 01:47:18;;;;;;;7.95;6.80;;;;;;;;;;5064857;28;20025;-73
2023/01/11 01:49:44;;;;;;;10.35;7.03;;;;;;;;;;5061638;28;20036;-73
2023/01/11 01:52:11;;;;;;;10.65;6.70;;;;;;;;;;5061848;28;20613;-74
2023/01/11 01:54:40;;;;;;;9.00;6.63;;;;;;;;;;5062345;28;21598;-73
2023/01/11 01:57:09;;;;;;;9.68;6.13;;;;;;;;;;5064456;28;20033;-73
2023/01/11 01:59:35;;;;;;;8.18;7.13;;;;;;;;;;5058428;28;20032;-73
2023/01/11 02:02:01;;;;;;;7.03;6.32;;;;;;;;;;5061185;28;20095;-74
2023/01/11 02:04:36;;;;;;;7.40;6.43;;;;;;;;;;5064319;28;20029;-73
2023/01/11 02:07:03;;;;;;;6.88;5.90;;;;;;;;;;5059462;28;20658;-75
2023/01/11 02:09:29;;;;;;;8.40;5.43;;;;;;;;;;5043626;28;20028;-74
2023/01/11 02:11:57;;;;;;;6.35;5.40;;;;;;;;;;5061539;28;20029;-73
2023/01/11 02:14:23;;;;;;;5.53;4.82;;;;;;;;;;5064634;28;20089;-73
2023/01/11 02:16:49;;;;;;;5.28;4.78;;;;;;;;;;5046049;28;20020;-73
2023/01/11 02:19:44;;;;;;;7.13;4.90;;;;;;;;;;5062652;28;20104;-74
2023/01/11 02:22:27;;;;;;;6.10;5.00;;;;;;;;;;5052396;28;20505;-73
2023/01/11 02:25:12;;;;;;;6.88;5.53;;;;;;;;;;5066347;28;20040;-74
2023/01/11 02:27:46;;;;;;;4.65;4.13;;;;;;;;;;5064225;28;20028;-73
2023/01/11 02:30:21;;;;;;;4.32;3.40;;;;;;;;;;5063883;28;20104;-73
2023/01/11 02:33:06;;;;;;;4.53;4.05;;;;;;;;;;5060982;28;20060;-73
2023/01/11 02:35:41;;;;;;;3.55;2.80;;;;;;;;;;5064254;28;20028;-72
2023/01/11 02:38:16;;;;;;;3.50;2.75;;;;;;;;;;5064567;28;20477;-72
2023/01/11 02:40:49;;;;;;;5.20;2.85;;;;;;;;;;5059667;28;20111;-72
2023/01/11 02:46:29;;;;;;;5.32;2.53;;;;;;;;;;5062703;28;20626;-72
2023/01/11 02:49:07;;;;;;;1.92;1.83;;;;;;;;;;5061742;28;20033;-72
2023/01/11 02:51:36;;;;;;;4.25;2.20;;;;;;;;;;5064234;28;20392;-71
2023/01/11 02:54:05;;;;;;;2.95;2.00;;;;;;;;;;5060056;28;20059;-74
2023/01/11 02:56:34;;;;;;;2.67;2.30;;;;;;;;;;5061101;28;20071;-75
2023/01/11 02:59:01;;;;;;;4.35;3.00;;;;;;;;;;5060171;28;20032;-73
2023/01/11 03:01:27;;;;;;;4.25;3.33;;;;;;;;;;5045369;28;20423;-71
2023/01/11 03:03:53;;;;;;;6.15;4.00;;;;;;;;;;5061754;28;20397;-72
2023/01/11 03:06:21;;;;;;;5.90;4.13;;;;;;;;;;5066120;28;20055;-77
2023/01/11 03:09:06;;;;;;;7.15;4.50;;;;;;;;;;5061624;28;20036;-72
2023/01/11 03:14:40;;;;;;;6.63;4.85;;;;;;;;;;5060765;28;20124;-72
2023/01/11 03:17:23;;;;;;;8.32;4.57;;;;;;;;;;5062754;28;20292;-73
2023/01/11 03:19:54;;;;;;;12.48;4.40;;;;;;;;;;5062670;28;20024;-72
2023/01/11 03:22:25;;;;;;;12.77;4.72;;;;;;;;;;5060714;28;20089;-73
2023/01/11 03:24:57;;;;;;;8.55;4.65;;;;;;;;;;5058837;28;20044;-73
2023/01/11 03:27:35;;;;;;;13.43;5.43;;;;;;;;;;5059949;28;20032;-73
2023/01/11 03:30:01;;;;;;;14.77;5.80;;;;;;;;;;5056884;28;20523;-73
2023/01/11 03:32:36;;;;;;;15.02;5.90;;;;;;;;;;5060113;28;20044;-72
2023/01/11 03:35:14;;;;;;;10.77;5.32;;;;;;;;;;5058832;28;20017;-73
2023/01/11 03:37:59;;;;;;;16.15;5.38;;;;;;;;;;5059296;28;20024;-73
2023/01/11 03:40:34;;;;;;;18.52;6.05;;;;;;;;;;5058852;28;20032;-72
2023/01/11 03:43:11;;;;;;;23.80;6.63;;;;;;;;;;5062565;28;20499;-72
2023/01/11 03:45:49;;;;;;;17.95;5.22;;;;;;;;;;5058620;28;20105;-74
2023/01/11 03:48:24;;;;;;;23.52;5.60;;;;;;;;;;5046700;28;20029;-72
2023/01/11 03:50:52;;;;;;;29.25;6.18;;;;;;;;;;5058354;28;20027;-72
2023/01/11 03:53:20;;;;;;;23.42;7.53;;;;;;;;;;5062484;28;20427;-72
2023/01/11 03:55:48;;;;;;;25.00;5.80;;;;;;;;;;5064078;28;20064;-73
2023/01/11 03:58:14;;;;;;;23.10;5.53;;;;;;;;;;5063375;28;20192;-72
2023/01/11 04:00:41;;;;;;;27.00;5.55;;;;;;;;;;5062244;28;20397;-71
2023/01/11 04:03:08;;;;;;;33.60;6.57;;;;;;;;;;5061362;28;20032;-71
2023/01/11 04:05:35;;;;;;;28.60;5.35;;;;;;;;;;5064079;28;20155;-75
2023/01/11 04:08:01;;;;;;;22.40;6.18;;;;;;;;;;5064214;28;20043;-73
2023/01/11 04:10:27;;;;;;;26.17;4.90;;;;;;;;;;5065763;28;20029;-72
2023/01/11 04:12:53;;;;;;;28.15;5.57;;;;;;;;;;5044362;28;20048;-72
2023/01/11 04:15:19;;;;;;;21.65;4.30;;;;;;;;;;5061827;28;20374;-72
2023/01/11 04:17:45;;;;;;;30.30;4.78;;;;;;;;;;5061263;28;21330;-72
2023/01/11 04:20:14;;;;;;;30.77;5.05;;;;;;;;;;5058996;28;20028;-73
2023/01/11 04:22:40;;;;;;;29.20;5.05;;;;;;;;;;5060463;28;20037;-72
2023/01/11 04:25:07;;;;;;;26.83;5.15;;;;;;;;;;5061940;28;20534;-72
2023/01/11 04:27:33;;;;;;;32.85;6.47;;;;;;;;;;5045529;28;20033;-75
2023/01/11 04:30:00;;;;;;;33.85;6.90;;;;;;;;;;5059617;28;20110;-74
2023/01/11 04:32:26;;;;;;;26.33;4.32;;;;;;;;;;5063340;28;20516;-72
2023/01/11 04:34:52;;;;;;;23.35;4.38;;;;;;;;;;5060716;28;20059;-73
2023/01/11 04:37:18;;;;;;;35.45;5.78;;;;;;;;;;5064706;28;20028;-73
2023/01/11 04:39:44;;;;;;;30.50;4.57;;;;;;;;;;5059574;28;20079;-75
2023/01/11 04:42:17;;;;;;;35.88;5.32;;;;;;;;;;5067902;28;20490;-75
2023/01/11 04:44:44;;;;;;;38.97;4.95;;;;;;;;;;5044866;28;20021;-73
2023/01/11 04:47:10;;;;;;;33.40;5.57;;;;;;;;;;5062317;28;20029;-73
2023/01/11 04:49:36;;;;;;;44.13;5.55;;;;;;;;;;5064022;28;20081;-76
2023/01/11 04:52:02;;;;;;;45.10;5.63;;;;;;;;;;5062268;28;20059;-73
2023/01/11 04:54:28;;;;;;;42.35;5.63;;;;;;;;;;5062381;28;20521;-75
2023/01/11 04:56:54;;;;;;;35.03;4.65;;;;;;;;;;5060653;28;20100;-76
2023/01/11 04:59:20;;;;;;;43.90;4.97;;;;;;;;;;5045900;28;20040;-75
2023/01/11 05:01:46;;;;;;;34.78;5.20;;;;;;;;;;5066093;28;20457;-75
2023/01/11 05:04:12;;;;;;;42.72;7.05;;;;;;;;;;5057585;28;20090;-74
2023/01/11 05:06:38;;;;;;;37.42;4.80;;;;;;;;;;5068141;28;20489;-74
2023/01/11 05:09:04;;;;;;;41.40;5.72;;;;;;;;;;5063566;28;20047;-74
2023/01/11 05:11:32;;;;;;;38.10;5.28;;;;;;;;;;5048509;28;20104;-75
2023/01/11 05:13:58;;;;;;;32.22;4.30;;;;;;;;;;5071514;28;20140;-73
2023/01/11 05:16:25;;;;;;;37.17;4.70;;;;;;;;;;5057260;28;20040;-74
2023/01/11 05:18:52;;;;;;;27.48;4.10;;;;;;;;;;5072065;28;20028;-74
2023/01/11 05:21:20;;;;;;;30.92;3.63;;;;;;;;;;5069982;28;20047;-73
2023/01/11 05:23:46;;;;;;;25.38;3.78;;;;;;;;;;5073604;28;20404;-74
2023/01/11 05:26:17;;;;;;;30.77;4.15;;;;;;;;;;5068590;28;20021;-72
2023/01/11 05:28:43;;;;;;;30.73;3.55;;;;;;;;;;5064211;28;20393;-74
2023/01/11 05:31:09;;;;;;;37.47;4.68;;;;;;;;;;5068120;28;20040;-75
2023/01/11 05:33:35;;;;;;;39.90;5.10;;;;;;;;;;5055770;28;20461;-74
2023/01/11 05:36:06;;;;;;;32.40;7.05;;;;;;;;;;5050019;28;20423;-75
2023/01/11 05:38:32;;;;;;;37.30;5.15;;;;;;;;;;5068181;28;20040;-74
2023/01/11 05:41:02;;;;;;;30.60;5.20;;;;;;;;;;5061791;28;20041;-75
2023/01/11 05:43:29;;;;;;;54.72;9.88;;;;;;;;;;5064020;28;20089;-73
2023/01/11 05:45:56;;;;;;;47.95;6.38;;;;;;;;;;5066521;28;20081;-72
2023/01/11 05:48:22;;;;;;;43.00;5.15;;;;;;;;;;5068479;28;20060;-74
2023/01/11 05:50:54;;;;;;;35.50;5.13;;;;;;;;;;5046576;28;20052;-72
2023/01/11 05:53:20;;;;;;;;;;;;;;;;;;5065663;28;20048;-73
2023/01/11 05:55:56;;;;;;;36.95;4.55;;;;;;;;;;5069436;28;20575;-73
2023/01/11 05:58:23;;;;;;;35.13;5.15;;;;;;;;;;5060118;28;20098;-74
2023/01/11 06:00:49;;;;;;;30.30;5.60;;;;;;;;;;5062978;28;20020;-75
2023/01/11 06:03:15;;;;;;;35.08;3.70;;;;;;;;;;5065068;28;20064;-75
2023/01/11 06:05:42;;;;;;;28.60;3.53;;;;;;;;;;5068359;28;20103;-74
2023/01/11 06:08:08;;;;;;;27.88;4.15;;;;;;;;;;5071844;28;20063;-75
2023/01/11 06:10:34;;;;;;;32.75;4.85;;;;;;;;;;5063399;28;20060;-75
2023/01/11 06:15:45;;;;;;;29.15;3.22;;;;;;;;;;5064309;28;20601;-75
2023/01/11 06:18:11;;;;;;;34.95;4.10;;;;;;;;;;5065627;28;20052;-73
2023/01/11 06:20:37;;;;;;;20.38;3.33;;;;;;;;;;5064054;28;20481;-74
2023/01/11 06:23:03;;;;;;;26.05;4.32;;;;;;;;;;5067720;28;20090;-75
2023/01/11 06:25:29;;;;;;;27.88;4.10;;;;;;;;;;5063594;28;20032;-75
2023/01/11 06:27:56;;;;;;;26.00;4.57;;;;;;;;;;5063195;28;20039;-73
2023/01/11 06:30:24;;;;;;;30.10;4.05;;;;;;;;;;5067768;28;20039;-72
2023/01/11 06:32:51;;;;;;;33.30;4.75;;;;;;;;;;5060622;28;20132;-72
2023/01/11 06:35:17;;;;;;;28.83;3.75;;;;;;;;;;5060760;28;20119;-74
2023/01/11 06:37:43;;;;;;;25.55;3.70;;;;;;;;;;5069837;28;20037;-72
2023/01/11 06:40:09;;;;;;;24.08;5.07;;;;;;;;;;5064048;28;20035;-72
2023/01/11 06:42:35;;;;;;;15.93;3.45;;;;;;;;;;5067460;28;20141;-74
2023/01/11 06:45:01;;;;;;;18.75;3.28;;;;;;;;;;5065305;28;20099;-77
2023/01/11 06:47:27;;;;;;;27.35;3.33;;;;;;;;;;5048219;28;20051;-72
2023/01/11 06:49:53;;;;;;;21.25;3.28;;;;;;;;;;5074899;28;20074;-77
2023/01/11 06:52:19;;;;;;;24.92;3.40;;;;;;;;;;5065633;28;20738;-72
2023/01/11 06:54:45;;;;;;;16.48;2.70;;;;;;;;;;5070539;28;20037;-72
2023/01/11 06:57:11;;;;;;;35.78;3.60;;;;;;;;;;5065685;28;20033;-77
2023/01/11 06:59:38;;;;;;;25.70;3.55;;;;;;;;;;5066562;28;20070;-76
2023/01/11 07:02:04;;;;;;;30.52;4.45;;;;;;;;;;5065045;28;20035;-72
2023/01/11 07:04:30;;;;;;;19.75;3.60;;;;;;;;;;5068498;28;20048;-73
2023/01/11 07:06:56;;;;;;;23.88;3.50;;;;;;;;;;5065485;28;20081;-75
2023/01/11 07:09:22;;;;;;;24.98;3.00;;;;;;;;;;5066193;28;20036;-74
2023/01/11 07:11:48;;;;;;;21.95;2.80;;;;;;;;;;5064544;28;20116;-74
2023/01/11 07:14:18;;;;;;;19.75;2.85;;;;;;;;;;5069253;28;20584;-74
2023/01/11 07:16:46;;;;;;;27.65;2.92;;;;;;;;;;5067258;28;20146;-74
2023/01/11 07:19:12;;;;;;;24.35;3.03;;;;;;;;;;5044500;28;20024;-73
2023/01/11 07:21:38;;;;;;;16.25;2.53;;;;;;;;;;5061414;28;20028;-73
2023/01/11 07:24:04;;;;;;;19.65;2.35;;;;;;;;;;5065516;28;20033;-73
2023/01/11 07:26:31;;;;;;;22.77;2.70;;;;;;;;;;5068111;28;20032;-73
2023/01/11 07:28:58;;;;;;;24.55;4.22;;;;;;;;;;5069533;28;20020;-74
2023/01/11 07:31:24;;;;;;;22.20;2.63;;;;;;;;;;5066896;28;20032;-73
2023/01/11 07:33:50;;;;;;;23.10;3.53;;;;;;;;;;5070467;28;20400;-73
2023/01/11 07:36:16;;;;;;;17.65;2.40;;;;;;;;;;5048223;28;20020;-72
2023/01/11 07:38:42;;;;;;;19.85;3.08;;;;;;;;;;5066175;28;20031;-72
2023/01/11 07:43:52;;;;;;;20.90;3.60;;;;;;;;;;5067402;28;20182;-75
2023/01/11 07:46:18;;;;;;;22.42;4.75;;;;;;;;;;5065641;28;20028;-77
2023/01/11 07:48:44;;;;;;;16.85;3.83;;;;;;;;;;5066260;28;20040;-72
2023/01/11 07:51:12;;;;;;;12.93;2.72;;;;;;;;;;5064954;28;20107;-72
2023/01/11 07:53:38;;;;;;;13.60;2.33;;;;;;;;;;5064533;28;20025;-72
2023/01/11 07:56:04;;;;;;;14.93;2.25;;;;;;;;;;5062839;28;20039;-73
2023/01/11 07:58:31;;;;;;;19.52;4.25;;;;;;;;;;5060794;28;20393;-72
2023/01/11 08:00:59;;;;;;;14.00;2.13;;;;;;;;;;5060281;28;20540;-73
2023/01/11 08:03:25;;;;;;;15.55;2.17;;;;;;;;;;5068986;28;20032;-73
2023/01/11 08:05:51;;;;;;;11.52;3.35;;;;;;;;;;5064335;28;20028;-76
2023/01/11 08:08:17;;;;;;;23.55;3.58;;;;;;;;;;5061531;28;20023;-75
2023/01/11 08:10:43;;;;;;;38.50;14.32;;;;;;;;;;5063884;28;20043;-72
2023/01/11 08:15:59;;;;;;;18.88;4.97;;;;;;;;;;5064076;28;20063;-74
2023/01/11 08:18:25;;;;;;;21.08;3.65;;;;;;;;;;5059093;28;20056;-74
2023/01/11 08:20:52;;;;;;;12.18;2.55;;;;;;;;;;5056147;28;20056;-73
2023/01/11 08:23:18;;;;;;;17.45;2.90;;;;;;;;;;5060669;28;20024;-73
2023/01/11 08:25:44;;;;;;;9.85;2.78;;;;;;;;;;5051514;28;20085;-72
2023/01/11 08:28:11;;;;;;;15.80;2.58;;;;;;;;;;5057286;28;20166;-71
2023/01/11 08:30:37;;;;;;;15.48;3.25;;;;;;;;;;5060454;28;20032;-72
2023/01/11 08:33:04;;;;;;;15.15;2.13;;;;;;;;;;5061943;28;20054;-78
2023/01/11 08:35:30;;;;;;;15.90;2.60;;;;;;;;;;5064039;28;20024;-74
2023/01/11 08:37:56;;;;;;;11.10;2.17;;;;;;;;;;5068880;28;20035;-75
2023/01/11 08:40:24;;;;;;;15.63;2.22;;;;;;;;;;5049402;28;20033;-70
2023/01/11 08:42:53;;;;;;;13.05;2.00;;;;;;;;;;5065299;28;20456;-71
2023/01/11 08:45:19;;;;;;;17.85;2.22;;;;;;;;;;5065324;28;20040;-71
2023/01/11 08:47:45;;;;;;;14.23;2.53;;;;;;;;;;5064746;28;20035;-71
2023/01/11 08:50:12;;;;;;;16.73;2.45;;;;;;;;;;5065982;28;20043;-71
2023/01/11 08:52:38;;;;;;;11.15;2.08;;;;;;;;;;5063641;28;20033;-71
2023/01/11 08:55:06;;;;;;;14.35;1.77;;;;;;;;;;5066841;28;20036;-73
2023/01/11 08:57:33;;;;;;;13.13;2.13;;;;;;;;;;5063425;28;20035;-71
2023/01/11 08:59:59;;;;;;;14.27;1.90;;;;;;;;;;5065418;28;20024;-72
2023/01/11 09:02:25;;;;;;;16.95;2.00;;;;;;;;;;5062449;28;20504;-76
2023/01/11 09:04:51;;;;;;;16.40;2.45;;;;;;;;;;5060715;28;20044;-71
2023/01/11 09:07:17;;;;;;;18.30;1.77;;;;;;;;;;5061564;28;20107;-70
2023/01/11 09:09:43;;;;;;;19.60;3.03;;;;;;;;;;5064935;28;20040;-71
2023/01/11 09:12:09;;;;;;;29.88;11.50;;;;;;;;;;5062969;28;20039;-70
2023/01/11 09:14:35;;;;;;;13.38;4.35;;;;;;;;;;5060658;28;20047;-73
2023/01/11 09:17:01;;;;;;;20.45;4.75;;;;;;;;;;5064351;28;20384;-71
2023/01/11 09:19:27;;;;;;;18.33;4.57;;;;;;;;;;5055156;28;20082;-72
2023/01/11 09:21:56;;;;;;;14.32;3.17;;;;;;;;;;5059201;28;20650;-77
2023/01/11 09:24:22;;;;;;;9.70;2.55;;;;;;;;;;5050819;28;20040;-70
2023/01/11 09:26:48;;;;;;;14.18;3.45;;;;;;;;;;5057039;28;20478;-78
2023/01/11 09:29:14;;;;;;;19.35;3.33;;;;;;;;;;5068988;28;20044;-70
2023/01/11 09:31:40;;;;;;;14.75;2.35;;;;;;;;;;5061620;28;20025;-71
2023/01/11 09:34:07;;;;;;;12.18;2.20;;;;;;;;;;5067567;28;20111;-74
2023/01/11 09:36:35;;;;;;;14.60;2.63;;;;;;;;;;5046448;28;20118;-71
2023/01/11 09:39:04;;;;;;;14.05;2.30;;;;;;;;;;5050891;28;20028;-73
2023/01/11 09:41:49;;;;;;;15.35;2.30;;;;;;;;;;5053307;28;20044;-74
2023/01/11 09:44:24;;;;;;;23.80;2.33;;;;;;;;;;5063410;28;20122;-71
2023/01/11 09:46:51;;;;;;;12.00;2.20;;;;;;;;;;5064996;28;20021;-71
2023/01/11 09:49:22;;;;;;;23.20;3.22;;;;;;;;;;5069166;28;20056;-71
2023/01/11 09:51:49;;;;;;;18.05;3.10;;;;;;;;;;5067605;28;20108;-71
2023/01/11 09:54:18;;;;;;;20.77;2.95;;;;;;;;;;5069794;28;20173;-71
2023/01/11 09:56:52;;;;;;;16.23;3.58;;;;;;;;;;5053258;28;20560;-71
2023/01/11 09:59:43;;;;;;;15.65;3.22;;;;;;;;;;5062049;28;20021;-72
2023/01/11 10:02:18;;;;;;;21.73;4.60;;;;;;;;;;5061955;28;20063;-71
2023/01/11 10:05:04;;;;;;;14.02;3.72;;;;;;;;;;5064916;28;20032;-71
2023/01/11 10:07:36;;;;;;;19.35;3.45;;;;;;;;;;5061981;28;20028;-82
2023/01/11 10:10:20;;;;;;;11.98;3.25;;;;;;;;;;5065103;28;20024;-71
2023/01/11 10:12:56;;;;;;;18.45;2.60;;;;;;;;;;5062002;28;20044;-78
2023/01/11 10:15:26;;;;;;;15.75;2.65;;;;;;;;;;5063415;28;20020;-72
2023/01/11 10:18:12;;;;;;;15.55;2.17;;;;;;;;;;5059554;28;20373;-70
2023/01/11 10:20:45;;;;;;;19.63;2.53;;;;;;;;;;5063147;28;20023;-71
2023/01/11 10:23:15;;;;;;;19.25;3.00;;;;;;;;;;5060899;28;20032;-71
2023/01/11 10:25:50;;;;;;;16.85;3.20;;;;;;;;;;5066129;28;20048;-71
2023/01/11 10:28:37;;;;;;;28.83;3.33;;;;;;;;;;5049047;28;20472;-78
2023/01/11 10:34:14;;;;;;;21.90;3.88;;;;;;;;;;5068021;28;20098;-78
2023/01/11 10:39:54;;;;;;;14.70;2.65;;;;;;;;;;5069551;28;20330;-73
2023/01/11 10:42:22;;;;;;;22.17;3.95;;;;;;;;;;5061379;28;20032;-73
2023/01/11 10:44:51;;;;;;;29.92;9.02;;;;;;;;;;5071775;28;20477;-72
2023/01/11 10:47:19;;;;;;;34.83;12.15;;;;;;;;;;5063504;28;20021;-72
2023/01/11 10:49:50;;;;;;;23.27;4.50;;;;;;;;;;5047090;28;20426;-73
2023/01/11 10:52:22;;;;;;;21.90;3.88;;;;;;;;;;5061889;28;20025;-71
2023/01/11 10:54:53;;;;;;;20.63;3.25;;;;;;;;;;5064740;28;20128;-73
2023/01/11 10:57:38;;;;;;;20.60;3.58;;;;;;;;;;5065771;28;21338;-71
2023/01/11 11:00:10;;;;;;;22.67;4.00;;;;;;;;;;5064201;28;20075;-73
2023/01/11 11:02:36;;;;;;;;;;;;;;;;;;5062999;28;20033;-76
2023/01/11 11:05:08;;;;;;;25.10;4.88;;;;;;;;;;5068550;28;20380;-73
2023/01/11 11:07:43;;;;;;;20.92;3.35;;;;;;;;;;5060705;28;20076;-73
2023/01/11 11:10:13;;;;;;;17.73;3.65;;;;;;;;;;5067397;28;20028;-72
2023/01/11 11:12:41;;;;;;;34.33;8.10;;;;;;;;;;5058539;28;20044;-79
2023/01/11 11:15:07;;;;;;;19.42;3.38;;;;;;;;;;5067282;28;20113;-72
2023/01/11 11:17:37;;;;;;;21.83;4.43;;;;;;;;;;5062034;28;20086;-77
2023/01/11 11:20:12;;;;;;;17.98;2.75;;;;;;;;;;5062187;28;20481;-72
2023/01/11 11:22:38;;;;;;;21.67;3.85;;;;;;;;;;5065854;28;20040;-71
2023/01/11 11:25:07;;;;;;;21.20;4.20;;;;;;;;;;5065738;28;20028;-73
2023/01/11 11:27:39;;;;;;;25.20;4.72;;;;;;;;;;5064929;28;20449;-73
2023/01/11 11:30:05;;;;;;;21.85;3.50;;;;;;;;;;5066801;28;20488;-74
2023/01/11 11:32:33;;;;;;;24.10;4.45;;;;;;;;;;5062567;28;20060;-73
2023/01/11 11:34:59;;;;;;;19.38;3.22;;;;;;;;;;5045452;28;20016;-72
2023/01/11 11:37:27;;;;;;;23.63;3.90;;;;;;;;;;5059311;28;20114;-73
2023/01/11 11:39:53;;;;;;;23.42;3.92;;;;;;;;;;5065922;28;20020;-73
2023/01/11 11:42:20;;;;;;;23.08;3.78;;;;;;;;;;5059811;28;20035;-74
2023/01/11 11:45:05;;;;;;;24.10;4.20;;;;;;;;;;5056724;28;20036;-72
2023/01/11 11:47:31;;;;;;;26.05;6.45;;;;;;;;;;5064383;28;20032;-72
2023/01/11 11:50:16;;;;;;;34.47;6.10;;;;;;;;;;5065575;28;20021;-73
2023/01/11 11:52:42;;;;;;;29.40;5.10;;;;;;;;;;5062347;28;20036;-76
2023/01/11 11:55:09;;;;;;;28.48;4.10;;;;;;;;;;5062911;28;20044;-76
2023/01/11 11:57:39;;;;;;;26.63;4.50;;;;;;;;;;5068591;28;20083;-76
2023/01/11 12:00:07;;;;;;;21.67;4.15;;;;;;;;;;5058054;28;20016;-76
2023/01/11 12:02:35;;;;;;;23.00;4.70;;;;;;;;;;5051144;28;20039;-79
2023/01/11 12:05:05;;;;;;;17.00;3.63;;;;;;;;;;5065995;28;20032;-76
2023/01/11 12:07:36;;;;;;;21.70;3.60;;;;;;;;;;5039470;28;20114;-76
2023/01/11 12:10:02;;;;;;;21.92;3.60;;;;;;;;;;5067503;28;20028;-74
2023/01/11 12:12:28;;;;;;;19.50;4.38;;;;;;;;;;5069562;28;20471;-75
2023/01/11 12:15:12;;;;;;;28.83;3.92;;;;;;;;;;5053095;28;20391;-76
2023/01/11 12:17:38;;;;;;;21.85;4.32;;;;;;;;;;5061667;28;20448;-74
2023/01/11 12:20:24;;;;;;;25.30;4.07;;;;;;;;;;5053003;28;20060;-74
2023/01/11 12:23:07;;;;;;;24.05;4.55;;;;;;;;;;5066033;28;20037;-76
2023/01/11 12:25:33;;;;;;;;;;;;;;;;;;5068048;28;20082;-75
2023/01/11 12:28:07;;;;;;;29.83;5.13;;;;;;;;;;5062775;28;19912;-74
2023/01/11 12:30:43;;;;;;;28.23;3.95;;;;;;;;;;5066448;28;20025;-74
2023/01/11 12:33:33;;;;;;;22.35;3.70;;;;;;;;;;5054002;28;20140;-74
2023/01/11 12:36:11;;;;;;;22.95;4.13;;;;;;;;;;5032900;28;20049;-76
2023/01/11 12:38:49;;;;;;;16.73;3.20;;;;;;;;;;5053554;28;20028;-74
2023/01/11 12:41:42;;;;;;;29.33;4.05;;;;;;;;;;5069648;28;20446;-74
2023/01/11 12:44:26;;;;;;;27.30;5.88;;;;;;;;;;5059616;28;20040;-73
2023/01/11 12:46:52;;;;;;;24.88;5.00;;;;;;;;;;5052934;28;20029;-74
2023/01/11 12:49:25;;;;;;;38.33;5.43;;;;;;;;;;5051380;28;20435;-74
2023/01/11 12:51:57;;;;;;;28.08;5.07;;;;;;;;;;5063773;28;20469;-75
2023/01/11 12:54:41;;;;;;;26.95;5.15;;;;;;;;;;5051979;28;20045;-75
2023/01/11 12:57:25;;;;;;;30.33;4.68;;;;;;;;;;5062279;28;20043;-76
2023/01/11 12:59:51;;;;;;;27.90;4.22;;;;;;;;;;5061278;28;20025;-74
2023/01/11 13:02:35;;;;;;;33.65;4.57;;;;;;;;;;5062650;28;20108;-77
2023/01/11 13:05:11;;;;;;;28.88;5.43;;;;;;;;;;5060877;28;20029;-75
2023/01/11 13:07:49;;;;;;;32.50;5.43;;;;;;;;;;5056284;28;20048;-76
2023/01/11 13:10:15;;;;;;;34.40;5.78;;;;;;;;;;5066298;28;20112;-74
2023/01/11 13:12:45;;;;;;;28.83;4.30;;;;;;;;;;5061700;28;20041;-75
2023/01/11 13:15:11;;;;;;;27.60;3.50;;;;;;;;;;5063312;28;20453;-77
2023/01/11 13:17:40;;;;;;;30.80;3.95;;;;;;;;;;5059718;28;20033;-75
2023/01/11 13:20:22;;;;;;;29.20;4.75;;;;;;;;;;5062296;28;20033;-75
2023/01/11 13:22:51;;;;;;;23.25;4.50;;;;;;;;;;5056658;28;20490;-75
2023/01/11 13:25:20;;;;;;;27.80;5.85;;;;;;;;;;5060220;28;20508;-75
2023/01/11 13:27:46;;;;;;;26.30;5.85;;;;;;;;;;5060770;28;20447;-75
2023/01/11 13:30:16;;;;;;;24.63;3.50;;;;;;;;;;5066917;28;20032;-75
2023/01/11 13:32:45;;;;;;;29.65;5.07;;;;;;;;;;5065591;28;20190;-75
2023/01/11 13:35:14;;;;;;;31.30;5.18;;;;;;;;;;5059219;28;20396;-75
2023/01/11 13:37:42;;;;;;;30.55;5.95;;;;;;;;;;5073549;28;20369;-75
2023/01/11 13:40:17;;;;;;;37.70;7.25;;;;;;;;;;5061865;28;20032;-75
2023/01/11 13:42:48;;;;;;;23.42;6.63;;;;;;;;;;5071583;28;20070;-74
2023/01/11 13:45:29;;;;;;;35.08;7.20;;;;;;;;;;5059618;28;20036;-75
2023/01/11 13:47:57;;;;;;;21.27;4.45;;;;;;;;;;5055509;28;20420;-76
2023/01/11 13:50:23;;;;;;;33.25;4.85;;;;;;;;;;5053913;28;20104;-75
2023/01/11 13:53:04;;;;;;;28.23;4.95;;;;;;;;;;5071721;28;20037;-75
2023/01/11 13:55:41;;;;;;;28.00;5.00;;;;;;;;;;5056277;28;20035;-77
2023/01/11 13:58:10;;;;;;;26.80;5.20;;;;;;;;;;5068793;28;20086;-76
2023/01/11 14:00:50;;;;;;;27.13;5.05;;;;;;;;;;5057262;28;20388;-76
2023/01/11 14:03:25;;;;;;;29.15;4.70;;;;;;;;;;5053676;28;20037;-75
2023/01/11 14:06:12;;;;;;;33.63;5.57;;;;;;;;;;5061816;28;20025;-76
2023/01/11 14:08:44;;;;;;;25.42;4.35;;;;;;;;;;5065887;28;20125;-76
2023/01/11 14:11:14;;;;;;;22.50;3.97;;;;;;;;;;5068987;28;20504;-75
2023/01/11 14:14:12;;;;;;;27.50;4.80;;;;;;;;;;5065701;28;20126;-76
2023/01/11 14:16:38;;;;;;;27.20;3.78;;;;;;;;;;5052823;28;20268;-75
2023/01/11 14:19:23;;;;;;;20.08;3.30;;;;;;;;;;5052155;28;20020;-76
2023/01/11 14:22:00;;;;;;;26.90;4.55;;;;;;;;;;5059512;28;20036;-76
2023/01/11 14:24:28;;;;;;;24.65;4.63;;;;;;;;;;5052782;28;20051;-76
2023/01/11 14:27:03;;;;;;;27.67;4.68;;;;;;;;;;5064583;28;20485;-76
2023/01/11 14:29:48;;;;;;;43.80;6.50;;;;;;;;;;5065633;28;20107;-76
2023/01/11 14:32:37;;;;;;;25.85;4.90;;;;;;;;;;5063955;28;20195;-77
2023/01/11 14:35:03;;;;;;;27.25;3.60;;;;;;;;;;5049075;28;20145;-77
2023/01/11 14:37:29;;;;;;;29.30;4.85;;;;;;;;;;5063398;28;20021;-76
2023/01/11 14:40:13;;;;;;;27.02;4.43;;;;;;;;;;5058871;28;20025;-76
2023/01/11 14:43:06;;;;;;;23.13;3.78;;;;;;;;;;5041474;28;20486;-76
2023/01/11 14:45:35;;;;;;;21.75;3.25;;;;;;;;;;5062653;28;20039;-77
2023/01/11 14:48:16;;;;;;;30.85;5.13;;;;;;;;;;5062806;28;20466;-78
2023/01/11 14:50:57;;;;;;;22.13;3.90;;;;;;;;;;5060247;28;20028;-77
2023/01/11 14:53:28;;;;;;;26.17;3.88;;;;;;;;;;5048399;28;20036;-77
2023/01/11 14:55:54;;;;;;;27.67;4.53;;;;;;;;;;5064961;28;20702;-77
2023/01/11 14:58:27;;;;;;;32.05;5.22;;;;;;;;;;5065000;28;20481;-79
2023/01/11 15:00:53;;;;;;;24.50;5.85;;;;;;;;;;5061762;28;20024;-77
2023/01/11 15:03:20;;;;;;;22.10;4.05;;;;;;;;;;5057135;28;20464;-76
2023/01/11 15:05:48;;;;;;;28.67;4.53;;;;;;;;;;5059441;28;20028;-76
2023/01/11 15:08:14;;;;;;;26.95;4.38;;;;;;;;;;5055801;28;20115;-77
2023/01/11 15:10:49;;;;;;;37.72;5.18;;;;;;;;;;5058368;28;20151;-77
2023/01/11 15:13:25;;;;;;;29.80;4.82;;;;;;;;;;5049346;28;20085;-76